METAR Data
IDs: Format: Raw Decoded Include TAF

Data at: 1953 UTC 14 Dec 2018

KCOM 141935Z AUTO 33016G24KT 10SM OVC027 09/M01 A3015 RMK AO2 T00851007
KCOM 141915Z AUTO 33018G25KT 10SM OVC027 08/M01 A3015 RMK AO2 T00791011
KCOM 141855Z AUTO 34018G26KT 10SM OVC027 08/M01 A3015 RMK AO2 T00751013
KCOM 141835Z AUTO 33019G27KT 10SM BKN027 OVC055 07/M01 A3016 RMK AO2 T00731012
KCOM 141815Z AUTO 33021G27KT 10SM BKN027 OVC055 07/M02 A3016 RMK AO2 T00721016
KCOM 141755Z AUTO 32019G27KT 10SM OVC027 08/M01 A3016 RMK AO2 T00751009 10075 20027
KCOM 141735Z AUTO 33017G24KT 10SM OVC027 07/M01 A3016 RMK AO2 T00701011
KCOM 141715Z AUTO 34020G25KT 10SM OVC025 07/M01 A3015 RMK AO2 T00651014
KCOM 141655Z AUTO 33019G24KT 10SM OVC023 06/M02 A3015 RMK AO2 T00611017
KCOM 141635Z AUTO 32017G24KT 10SM OVC023 06/M02 A3015 RMK AO2 T00561022
KCOM 141615Z AUTO 32015G24KT 10SM OVC025 06/M02 A3015 RMK AO2 T00551019
KCOM 141555Z AUTO 32020G28KT 10SM BKN025 OVC032 06/M02 A3015 RMK AO2 T00551018
KCOM 141535Z AUTO 32021G28KT 10SM BKN025 OVC030 05/M02 A3013 RMK AO2 T00521016
KCOM 141515Z AUTO 32017G25KT 10SM BKN025 OVC030 05/M02 A3012 RMK AO2 T00471020
KCOM 141455Z AUTO 32017G24KT 10SM BKN027 04/M02 A3012 RMK AO2 T00421024
KCOM 141435Z AUTO 33016G23KT 10SM OVC023 04/M02 A3011 RMK AO2 T00371021
KCOM 141415Z AUTO 32015G23KT 10SM OVC023 04/M02 A3010 RMK AO2 T00371019
KCOM 141355Z AUTO 33018G26KT 10SM OVC023 04/M02 A3010 RMK AO2 T00351018
KCOM 141335Z AUTO 33017G23KT 10SM -DZ BKN023 BKN040 BKN050 03/M01 A3009 RMK AO2 T00311015
KCOM 141315Z AUTO 33017G23KT 10SM -DZ SCT032 SCT039 OVC050 03/M01 A3008 RMK AO2 T00301010
KCOM 141255Z AUTO 33019G28KT 10SM -DZ SCT021 BKN034 OVC065 03/M01 A3007 RMK AO2 T00301006
KCOM 141235Z AUTO 33020G25KT 7SM RA SCT027 BKN060 OVC070 03/00 A3006 RMK AO2 T00281005
KCOM 141215Z AUTO 33020G27KT 10SM DZ SCT023 BKN060 OVC070 03/00 A3006 RMK AO2 LTG DSNT NE T00271005
KCOM 141155Z AUTO 33016G23KT 10SM DZ SCT023 BKN036 OVC080 03/M01 A3005 RMK AO2 60002 70048 T00281007 10035 20021
KCOM 141135Z AUTO 33018G23KT 10SM -DZ BKN036 BKN046 OVC050 03/00 A3004 RMK AO2 T00251005
KCOM 141115Z AUTO 33021G27KT 7SM RA BKN034 BKN044 OVC050 03/00 A3004 RMK AO2 T00251003
KCOM 141055Z AUTO 33020G27KT 5SM RA BKN030 BKN042 OVC049 03/00 A3003 RMK AO2 P0001 T00251001
KCOM 141035Z AUTO 33021G30KT 7SM -RA SCT030 SCT043 OVC050 02/00 A3003 RMK AO2 P0001 T00241001
KCOM 141015Z AUTO 33017G31KT 7SM -RA OVC050 02/00 A3002 RMK AO2 T00230000
KCOM 140955Z AUTO 32020G29KT 7SM -RA BKN055 BKN065 OVC075 02/00 A3001 RMK AO2 T00230000
KCOM 140935Z AUTO 33023G33KT 7SM -RA SCT014 BKN050 OVC070 02/00 A3001 RMK AO2 T00220000
KCOM 140915Z AUTO 33021G31KT 7SM -RA BKN014 BKN020 OVC070 02/00 A3001 RMK AO2 LTG DSNT E T00220002
KCOM 140855Z AUTO 33024G31KT 5SM UP BKN014 OVC019 02/00 A3001 RMK AO2 60001 T00230002
KCOM 140835Z AUTO 33026G32KT 10SM RA BKN016 BKN021 OVC050 03/00 A3001 RMK AO2 T00260003
KCOM 140815Z AUTO 33019G25KT 10SM -RA SCT010 BKN014 OVC019 02/01 A3001 RMK AO2 T00220007
KCOM 140755Z AUTO 33024G33KT 4SM -SN BKN014 BKN019 OVC027 03/00 A3001 RMK AO2 P0001 T00260003
KCOM 140735Z AUTO 33021G26KT 10SM -RA SCT014 BKN020 OVC032 03/01 A3000 RMK AO2 T00280007
KCOM 140715Z AUTO 33019G29KT 7SM -RA BKN012 OVC020 03/01 A3000 RMK AO2 T00260009
KCOM 140655Z AUTO 33022G32KT 7SM -RA BKN014 OVC020 03/01 A3000 RMK AO2 T00290010
KCOM 140635Z AUTO 33023G33KT 7SM -RA BKN014 OVC023 03/01 A2999 RMK AO2 T00320013
KCOM 140615Z AUTO 34024G30KT 5SM -SN BKN014 OVC021 03/02 A2999 RMK AO2 T00330015
KCOM 140555Z AUTO 34021G28KT 7SM RA OVC012 04/02 A2998 RMK AO2 P0003 60026 T00350017 10038 20015 401160012
KCOM 140535Z AUTO 33019G27KT 3SM -SN OVC012 04/02 A2998 RMK AO2 P0003 T00350020
KCOM 140515Z AUTO 34020G28KT 5SM -RA OVC014 04/02 A2998 RMK AO2 T00380020
KCOM 140455Z AUTO 33018G24KT 7SM -RA OVC012 03/02 A3001 RMK AO2 P0005 T00320019
KCOM 140435Z AUTO 33016G25KT 3SM -SN OVC010 02/01 A2993 RMK AO2 P0005 T00200009
KCOM 140415Z AUTO 33017G29KT 3SM -SN BKN012 OVC017 03/01 A2993 RMK AO2 P0002 T00270009
KCOM 140355Z AUTO 33020G25KT 5SM RA OVC012 03/02 A2997 RMK AO2 P0005 T00320018
KCOM 140335Z AUTO 33018G30KT 3SM -SN SCT007 OVC012 03/02 A2996 RMK AO2 P0004 T00280019
KCOM 140315Z AUTO 32014G21KT 4SM -SN OVC010 02/00 A2996 RMK AO2 P0002 T00180004
KCOM 140255Z AUTO 32012KT 4SM -RA BKN010 OVC016 02/01 A2996 RMK AO2 P0009 60013 T00220011
KCOM 140235Z AUTO 31010G19KT 3SM -RA BKN009 OVC016 02/01 A2996 RMK AO2 P0007 T00220010
KCOM 140215Z AUTO 31013G18KT 5SM RA BKN011 BKN014 OVC021 03/01 A2996 RMK AO2 P0003 T00250012
KCOM 140155Z AUTO 31015G24KT 7SM -RA BKN011 OVC014 03/02 A2995 RMK AO2 P0004 T00290015
KCOM 140135Z AUTO 31016G24KT 5SM RA OVC011 03/01 A2994 RMK AO2 P0002 T00250013
KCOM 140115Z AUTO 30012G19KT 7SM -RA BKN011 BKN022 OVC034 02/01 A2994 RMK AO2 T00220011
KCOM 140055Z AUTO 29014G21KT 7SM -RA SCT009 BKN027 OVC034 02/01 A2993 RMK AO2 LTG DSNT NE T00210010
KCOM 140035Z AUTO 29014G20KT 7SM RA BKN011 BKN020 OVC042 03/01 A2993 RMK AO2 T00250011
KCOM 140015Z AUTO 30015G21KT 10SM -DZ BKN011 BKN021 OVC050 03/01 A2991 RMK AO2 T00280013
KCOM 132355Z AUTO 29016G26KT 10SM -DZ BKN011 BKN023 OVC055 03/01 A2991 RMK AO2 60020 T00270012 10080 20012
KCOM 132335Z AUTO 29018G29KT 10SM -DZ SCT011 BKN023 OVC042 03/01 A2989 RMK AO2 T00300013
KCOM 132315Z AUTO 30015G26KT 10SM DZ BKN013 BKN032 OVC042 03/02 A2989 RMK AO2 T00320017
KCOM 132255Z AUTO 30016G24KT 10SM -DZ BKN015 BKN033 OVC042 03/02 A2988 RMK AO2 P0002 T00300017
KCOM 132235Z AUTO 30013G19KT 7SM -RA SCT013 BKN021 OVC034 02/02 A2987 RMK AO2 P0002 T00210015
KCOM 132215Z AUTO 29013G18KT 2 1/2SM -SN BKN019 OVC024 01/01 A2987 RMK AO2 P0002 T00120005
KCOM 132155Z AUTO 29012G20KT 1 3/4SM -SN OVC017 01/01 A2986 RMK AO2 VIS 1/2V3 P0005 T00130005
KCOM 132135Z AUTO 29012G21KT 2SM -SN SCT009 OVC017 02/01 A2985 RMK AO2 P0003 T00160005
KCOM 132115Z AUTO 28014G18KT 4SM -SN BKN011 OVC020 02/01 A2985 RMK AO2 LTG DSNT NE AND E P0001 T00220010
KCOM 132055Z AUTO 29016G22KT 3SM RA BKN011 OVC019 03/01 A2984 RMK AO2 LTG DSNT NE P0003 60013 T00290013
KCOM 132035Z AUTO 29016G22KT 4SM RA SCT011 BKN015 OVC029 03/02 A2984 RMK AO2 LTG DSNT NE T00310017
KCOM 132015Z AUTO 29013G19KT 5SM RA BKN011 BKN017 OVC029 04/02 A2983 RMK AO2 T00360020
KCOM 131955Z AUTO 29011G19KT 5SM RA BKN011 BKN019 OVC026 05/03 A2982 RMK AO2 LTG DSNT NE P0009 T00450027
KCOM 131935Z AUTO 31013G19KT 4SM RA BKN011 BKN019 OVC025 05/03 A2982 RMK AO2 LTG DSNT NE P0007 T00460027
KCOM 131915Z AUTO 32014G21KT 2SM RA BKN014 OVC020 05/02 A2980 RMK AO2 LTG DSNT NE P0005 T00450024
KCOM 131855Z AUTO 31014G18KT 7SM +RA OVC014 06/03 A2980 RMK AO2 T00550025
KCOM 131835Z AUTO 31008KT 10SM OVC016 06/03 A2980 RMK AO2 T00620028
KCOM 131815Z AUTO 33016G23KT 10SM SCT014 BKN023 OVC100 07/03 A2979 RMK AO2 T00670032
KCOM 131755Z AUTO 34019G26KT 7SM SCT010 BKN022 OVC100 08/05 A2977 RMK AO2 T00810049 10111 20077
KCOM 131735Z AUTO 35020G27KT 5SM BR OVC015 08/06 A2976 RMK AO2 T00800056
KCOM 131715Z AUTO 32010G15KT 5SM -DZ OVC015 08/06 A2980 RMK AO2 T00810057
KCOM 131655Z AUTO 28011G14KT 7SM -RA OVC015 08/05 A2982 RMK AO2 LTG DSNT NE T00810050
KCOM 131635Z AUTO 31011G15KT 10SM OVC017 08/04 A2981 RMK AO2 T00840044
KCOM 131615Z AUTO 30011KT 10SM OVC017 09/04 A2981 RMK AO2 T00860040
KCOM 131555Z AUTO 33013G18KT 10SM SCT019 SCT080 BKN090 08/03 A2980 RMK AO2 T00810033
KCOM 131535Z AUTO 32014G23KT 10SM OVC090 08/03 A2978 RMK AO2 T00820031
KCOM 131515Z AUTO 32015G24KT 10SM BKN090 09/03 A2977 RMK AO2 LTG DSNT NE T00920026
KCOM 131455Z AUTO 32012G19KT 10SM CLR 11/06 A2974 RMK AO2 T01110056
KCOM 131435Z AUTO 28012G18KT 10SM CLR 11/06 A2972 RMK AO2 T01070064
KCOM 131415Z AUTO 27010G17KT 10SM CLR 11/07 A2971 RMK AO2 T01050068
KCOM 131355Z AUTO 26009KT 10SM CLR 10/07 A2970 RMK AO2 T01020070
KCOM 131335Z AUTO 25009G15KT 10SM CLR 10/07 A2969 RMK AO2 T01030073
KCOM 131315Z AUTO 25009KT 10SM CLR 09/08 A2969 RMK AO2 T00920082
KCOM 131255Z AUTO 24008KT 7SM CLR 09/08 A2969 RMK AO2 T00860081
KCOM 131235Z AUTO 24003KT 5SM BR CLR 09/08 A2968 RMK AO2 T00850080
KCOM 131215Z AUTO 22006KT 5SM BR CLR 09/08 A2968 RMK AO2 T00870082
KCOM 131155Z AUTO 24004KT 2 1/2SM BR CLR 08/07 A2968 RMK AO2 T00790074 10116 20078
KCOM 131135Z AUTO 23003KT 4SM BR CLR 08/08 A2969 RMK AO2 T00810076
KCOM 131115Z AUTO 23004KT 5SM BR CLR 08/08 A2969 RMK AO2 T00840077
KCOM 131055Z AUTO 00000KT 5SM BR SCT100 09/08 A2969 RMK AO2 T00850077
KCOM 131035Z AUTO 00000KT 7SM BKN100 09/08 A2969 RMK AO2 T00870079
KCOM 131015Z AUTO 23004KT 7SM SCT110 09/08 A2970 RMK AO2 LTG DSNT E T00910082
KCOM 130955Z AUTO 00000KT 10SM SCT090 SCT110 09/08 A2970 RMK AO2 T00930084
KCOM 130935Z AUTO 00000KT 10SM BKN100 09/09 A2971 RMK AO2 T00930085
KCOM 130915Z AUTO 20006KT 10SM BKN100 09/08 A2972 RMK AO2 LTG DSNT E T00910083
KCOM 130855Z AUTO 22003KT 10SM SCT100 09/08 A2973 RMK AO2 LTG DSNT NE AND E T00910084
KCOM 130835Z AUTO 00000KT 7SM SCT090 09/08 A2973 RMK AO2 T00900082
KCOM 130815Z AUTO 21003KT 10SM BKN090 09/08 A2974 RMK AO2 LTG DSNT NE T00910083
KCOM 130755Z AUTO 22004KT 10SM CLR 10/09 A2974 RMK AO2 LTG DSNT NE T00960087